sensor_id;sensor_type;location;lat;lon;timestamp;P1;durP1;ratioP1;P2;durP2;ratioP2
5965;SDS011;3009;43.224;27.976;2023-04-06T00:00:57;14.40;;;10.40;;
5965;SDS011;3009;43.224;27.976;2023-04-06T00:03:27;13.57;;;9.57;;
5965;SDS011;3009;43.224;27.976;2023-04-06T00:05:56;12.43;;;9.60;;
5965;SDS011;3009;43.224;27.976;2023-04-06T00:08:25;14.33;;;10.50;;
5965;SDS011;3009;43.224;27.976;2023-04-06T00:10:53;14.10;;;8.80;;
5965;SDS011;3009;43.224;27.976;2023-04-06T00:13:22;11.57;;;8.97;;
5965;SDS011;3009;43.224;27.976;2023-04-06T00:15:50;10.93;;;8.97;;
5965;SDS011;3009;43.224;27.976;2023-04-06T00:18:19;16.23;;;9.77;;
5965;SDS011;3009;43.224;27.976;2023-04-06T00:20:48;14.73;;;8.50;;
5965;SDS011;3009;43.224;27.976;2023-04-06T00:23:18;11.90;;;8.17;;
5965;SDS011;3009;43.224;27.976;2023-04-06T00:25:47;9.43;;;7.70;;
5965;SDS011;3009;43.224;27.976;2023-04-06T00:28:15;13.20;;;9.30;;
5965;SDS011;3009;43.224;27.976;2023-04-06T00:30:44;9.47;;;7.67;;
5965;SDS011;3009;43.224;27.976;2023-04-06T00:33:12;9.80;;;7.40;;
5965;SDS011;3009;43.224;27.976;2023-04-06T00:35:41;9.33;;;7.70;;
5965;SDS011;3009;43.224;27.976;2023-04-06T00:38:11;11.03;;;8.23;;
5965;SDS011;3009;43.224;27.976;2023-04-06T00:40:39;10.27;;;8.07;;
5965;SDS011;3009;43.224;27.976;2023-04-06T00:43:08;10.33;;;7.80;;
5965;SDS011;3009;43.224;27.976;2023-04-06T00:45:36;12.30;;;9.00;;
5965;SDS011;3009;43.224;27.976;2023-04-06T00:48:06;14.13;;;9.10;;
5965;SDS011;3009;43.224;27.976;2023-04-06T00:50:35;14.37;;;9.80;;
5965;SDS011;3009;43.224;27.976;2023-04-06T00:53:04;11.80;;;8.80;;
5965;SDS011;3009;43.224;27.976;2023-04-06T00:55:34;10.27;;;8.30;;
5965;SDS011;3009;43.224;27.976;2023-04-06T00:58:03;10.30;;;7.80;;
5965;SDS011;3009;43.224;27.976;2023-04-06T01:00:32;9.93;;;7.93;;
5965;SDS011;3009;43.224;27.976;2023-04-06T01:03:00;9.00;;;7.27;;
5965;SDS011;3009;43.224;27.976;2023-04-06T01:05:30;10.73;;;7.63;;
5965;SDS011;3009;43.224;27.976;2023-04-06T01:07:58;10.40;;;7.57;;
5965;SDS011;3009;43.224;27.976;2023-04-06T01:10:27;7.53;;;6.40;;
5965;SDS011;3009;43.224;27.976;2023-04-06T01:12:57;6.83;;;6.23;;
5965;SDS011;3009;43.224;27.976;2023-04-06T01:15:26;8.33;;;6.27;;
5965;SDS011;3009;43.224;27.976;2023-04-06T01:17:56;8.53;;;7.10;;
5965;SDS011;3009;43.224;27.976;2023-04-06T01:20:24;7.20;;;6.50;;
5965;SDS011;3009;43.224;27.976;2023-04-06T01:22:54;8.50;;;6.27;;
5965;SDS011;3009;43.224;27.976;2023-04-06T01:25:23;6.77;;;6.00;;
5965;SDS011;3009;43.224;27.976;2023-04-06T01:27:51;13.97;;;7.77;;
5965;SDS011;3009;43.224;27.976;2023-04-06T01:30:20;9.50;;;7.40;;
5965;SDS011;3009;43.224;27.976;2023-04-06T01:32:49;7.87;;;6.73;;
5965;SDS011;3009;43.224;27.976;2023-04-06T01:35:18;7.30;;;6.57;;
5965;SDS011;3009;43.224;27.976;2023-04-06T01:37:47;7.73;;;6.90;;
5965;SDS011;3009;43.224;27.976;2023-04-06T01:40:17;7.10;;;6.20;;
5965;SDS011;3009;43.224;27.976;2023-04-06T01:42:45;7.60;;;6.13;;
5965;SDS011;3009;43.224;27.976;2023-04-06T01:45:14;8.80;;;6.30;;
5965;SDS011;3009;43.224;27.976;2023-04-06T01:47:42;10.17;;;6.80;;
5965;SDS011;3009;43.224;27.976;2023-04-06T01:50:11;6.30;;;5.70;;
5965;SDS011;3009;43.224;27.976;2023-04-06T01:52:39;9.00;;;7.10;;
5965;SDS011;3009;43.224;27.976;2023-04-06T01:55:08;7.70;;;6.63;;
5965;SDS011;3009;43.224;27.976;2023-04-06T01:57:38;7.17;;;6.43;;
5965;SDS011;3009;43.224;27.976;2023-04-06T02:00:07;7.37;;;6.23;;
5965;SDS011;3009;43.224;27.976;2023-04-06T02:02:36;7.90;;;6.57;;
5965;SDS011;3009;43.224;27.976;2023-04-06T02:05:05;8.37;;;6.70;;
5965;SDS011;3009;43.224;27.976;2023-04-06T02:07:34;8.03;;;7.10;;
5965;SDS011;3009;43.224;27.976;2023-04-06T02:10:03;7.23;;;6.53;;
5965;SDS011;3009;43.224;27.976;2023-04-06T02:12:32;7.77;;;6.97;;
5965;SDS011;3009;43.224;27.976;2023-04-06T02:15:02;8.10;;;6.57;;
5965;SDS011;3009;43.224;27.976;2023-04-06T02:17:30;8.77;;;7.07;;
5965;SDS011;3009;43.224;27.976;2023-04-06T02:19:59;7.73;;;6.63;;
5965;SDS011;3009;43.224;27.976;2023-04-06T02:22:28;8.20;;;6.80;;
5965;SDS011;3009;43.224;27.976;2023-04-06T02:24:56;7.40;;;6.37;;
5965;SDS011;3009;43.224;27.976;2023-04-06T02:27:27;7.03;;;6.20;;
5965;SDS011;3009;43.224;27.976;2023-04-06T02:29:55;7.50;;;6.50;;
5965;SDS011;3009;43.224;27.976;2023-04-06T02:32:25;7.50;;;6.47;;
5965;SDS011;3009;43.224;27.976;2023-04-06T02:34:54;9.30;;;6.70;;
5965;SDS011;3009;43.224;27.976;2023-04-06T02:37:22;9.23;;;7.50;;
5965;SDS011;3009;43.224;27.976;2023-04-06T02:39:51;8.60;;;7.30;;
5965;SDS011;3009;43.224;27.976;2023-04-06T02:42:20;8.27;;;7.47;;
5965;SDS011;3009;43.224;27.976;2023-04-06T02:44:48;9.23;;;7.93;;
5965;SDS011;3009;43.224;27.976;2023-04-06T02:47:17;9.13;;;7.00;;
5965;SDS011;3009;43.224;27.976;2023-04-06T02:49:47;9.03;;;7.00;;
5965;SDS011;3009;43.224;27.976;2023-04-06T02:52:15;7.10;;;6.40;;
5965;SDS011;3009;43.224;27.976;2023-04-06T02:54:44;7.93;;;6.73;;
5965;SDS011;3009;43.224;27.976;2023-04-06T02:57:12;7.70;;;6.90;;
5965;SDS011;3009;43.224;27.976;2023-04-06T02:59:41;8.23;;;6.57;;
5965;SDS011;3009;43.224;27.976;2023-04-06T03:02:09;8.20;;;7.40;;
5965;SDS011;3009;43.224;27.976;2023-04-06T03:04:38;7.20;;;6.53;;
5965;SDS011;3009;43.224;27.976;2023-04-06T03:07:08;8.73;;;6.60;;
5965;SDS011;3009;43.224;27.976;2023-04-06T03:09:36;8.03;;;7.30;;
5965;SDS011;3009;43.224;27.976;2023-04-06T03:12:06;8.03;;;7.23;;
5965;SDS011;3009;43.224;27.976;2023-04-06T03:14:35;8.33;;;7.17;;
5965;SDS011;3009;43.224;27.976;2023-04-06T03:17:04;8.63;;;7.03;;
5965;SDS011;3009;43.224;27.976;2023-04-06T03:19:32;11.80;;;7.20;;
5965;SDS011;3009;43.224;27.976;2023-04-06T03:22:01;9.40;;;7.67;;
5965;SDS011;3009;43.224;27.976;2023-04-06T03:24:31;9.10;;;7.40;;
5965;SDS011;3009;43.224;27.976;2023-04-06T03:26:59;7.83;;;6.70;;
5965;SDS011;3009;43.224;27.976;2023-04-06T03:29:27;8.80;;;7.57;;
5965;SDS011;3009;43.224;27.976;2023-04-06T03:31:56;8.87;;;7.87;;
5965;SDS011;3009;43.224;27.976;2023-04-06T03:34:24;8.60;;;7.47;;
5965;SDS011;3009;43.224;27.976;2023-04-06T03:36:53;10.70;;;7.80;;
5965;SDS011;3009;43.224;27.976;2023-04-06T03:39:36;10.33;;;8.03;;
5965;SDS011;3009;43.224;27.976;2023-04-06T03:42:05;11.57;;;8.50;;
5965;SDS011;3009;43.224;27.976;2023-04-06T03:44:33;9.23;;;7.80;;
5965;SDS011;3009;43.224;27.976;2023-04-06T03:47:02;10.57;;;8.27;;
5965;SDS011;3009;43.224;27.976;2023-04-06T03:49:30;9.40;;;8.00;;
5965;SDS011;3009;43.224;27.976;2023-04-06T03:51:59;9.00;;;7.70;;
5965;SDS011;3009;43.224;27.976;2023-04-06T03:54:28;12.33;;;7.97;;
5965;SDS011;3009;43.224;27.976;2023-04-06T03:56:58;9.40;;;8.40;;
5965;SDS011;3009;43.224;27.976;2023-04-06T03:59:27;10.77;;;7.70;;
5965;SDS011;3009;43.224;27.976;2023-04-06T04:01:55;8.03;;;6.90;;
5965;SDS011;3009;43.224;27.976;2023-04-06T04:04:24;10.67;;;8.33;;
5965;SDS011;3009;43.224;27.976;2023-04-06T04:06:52;8.77;;;7.40;;
5965;SDS011;3009;43.224;27.976;2023-04-06T04:09:21;9.67;;;7.97;;
5965;SDS011;3009;43.224;27.976;2023-04-06T04:11:49;10.70;;;9.03;;
5965;SDS011;3009;43.224;27.976;2023-04-06T04:14:19;12.20;;;8.77;;
5965;SDS011;3009;43.224;27.976;2023-04-06T04:16:48;11.70;;;9.30;;
5965;SDS011;3009;43.224;27.976;2023-04-06T04:19:17;14.60;;;10.50;;
5965;SDS011;3009;43.224;27.976;2023-04-06T04:21:46;12.93;;;9.50;;
5965;SDS011;3009;43.224;27.976;2023-04-06T04:24:15;12.60;;;9.50;;
5965;SDS011;3009;43.224;27.976;2023-04-06T04:26:43;10.30;;;9.07;;
5965;SDS011;3009;43.224;27.976;2023-04-06T04:29:12;10.40;;;9.17;;
5965;SDS011;3009;43.224;27.976;2023-04-06T04:31:43;11.83;;;8.73;;
5965;SDS011;3009;43.224;27.976;2023-04-06T04:34:12;11.53;;;8.03;;
5965;SDS011;3009;43.224;27.976;2023-04-06T04:36:40;11.40;;;8.13;;
5965;SDS011;3009;43.224;27.976;2023-04-06T04:39:09;9.27;;;8.07;;
5965;SDS011;3009;43.224;27.976;2023-04-06T04:41:37;13.20;;;9.07;;
5965;SDS011;3009;43.224;27.976;2023-04-06T04:44:06;13.33;;;8.83;;
5965;SDS011;3009;43.224;27.976;2023-04-06T04:46:35;9.20;;;8.30;;
5965;SDS011;3009;43.224;27.976;2023-04-06T04:49:05;10.27;;;8.63;;
5965;SDS011;3009;43.224;27.976;2023-04-06T04:51:34;10.70;;;8.27;;
5965;SDS011;3009;43.224;27.976;2023-04-06T04:54:03;12.83;;;9.10;;
5965;SDS011;3009;43.224;27.976;2023-04-06T04:56:32;12.30;;;8.80;;
5965;SDS011;3009;43.224;27.976;2023-04-06T04:59:00;9.67;;;8.77;;
5965;SDS011;3009;43.224;27.976;2023-04-06T05:01:29;11.70;;;9.23;;
5965;SDS011;3009;43.224;27.976;2023-04-06T05:04:14;13.13;;;9.40;;
5965;SDS011;3009;43.224;27.976;2023-04-06T05:06:42;12.33;;;8.70;;
5965;SDS011;3009;43.224;27.976;2023-04-06T05:09:11;12.23;;;8.90;;
5965;SDS011;3009;43.224;27.976;2023-04-06T05:11:39;12.30;;;9.73;;
5965;SDS011;3009;43.224;27.976;2023-04-06T05:14:08;12.70;;;8.53;;
5965;SDS011;3009;43.224;27.976;2023-04-06T05:16:37;15.13;;;8.90;;
5965;SDS011;3009;43.224;27.976;2023-04-06T05:19:07;10.80;;;8.93;;
5965;SDS011;3009;43.224;27.976;2023-04-06T05:21:37;9.23;;;7.90;;
5965;SDS011;3009;43.224;27.976;2023-04-06T05:24:06;10.50;;;9.20;;
5965;SDS011;3009;43.224;27.976;2023-04-06T05:26:35;13.13;;;8.50;;
5965;SDS011;3009;43.224;27.976;2023-04-06T05:29:03;12.20;;;8.93;;
5965;SDS011;3009;43.224;27.976;2023-04-06T05:31:32;10.73;;;9.23;;
5965;SDS011;3009;43.224;27.976;2023-04-06T05:34:01;11.80;;;9.33;;
5965;SDS011;3009;43.224;27.976;2023-04-06T05:36:29;12.40;;;9.80;;
5965;SDS011;3009;43.224;27.976;2023-04-06T05:39:00;10.40;;;8.70;;
5965;SDS011;3009;43.224;27.976;2023-04-06T05:41:28;10.50;;;8.40;;
5965;SDS011;3009;43.224;27.976;2023-04-06T05:43:57;14.60;;;9.90;;
5965;SDS011;3009;43.224;27.976;2023-04-06T05:46:25;13.87;;;8.87;;
5965;SDS011;3009;43.224;27.976;2023-04-06T05:48:54;13.67;;;8.90;;
5965;SDS011;3009;43.224;27.976;2023-04-06T05:51:23;12.10;;;8.50;;
5965;SDS011;3009;43.224;27.976;2023-04-06T05:53:51;8.93;;;7.97;;
5965;SDS011;3009;43.224;27.976;2023-04-06T05:56:21;10.67;;;8.57;;
5965;SDS011;3009;43.224;27.976;2023-04-06T05:58:50;11.70;;;9.20;;
5965;SDS011;3009;43.224;27.976;2023-04-06T06:01:21;11.83;;;8.80;;
5965;SDS011;3009;43.224;27.976;2023-04-06T06:03:49;12.40;;;9.40;;
5965;SDS011;3009;43.224;27.976;2023-04-06T06:06:18;11.23;;;8.80;;
5965;SDS011;3009;43.224;27.976;2023-04-06T06:08:46;11.60;;;9.13;;
5965;SDS011;3009;43.224;27.976;2023-04-06T06:11:15;19.63;;;10.50;;
5965;SDS011;3009;43.224;27.976;2023-04-06T06:13:44;21.03;;;11.30;;
5965;SDS011;3009;43.224;27.976;2023-04-06T06:16:13;27.00;;;10.70;;
5965;SDS011;3009;43.224;27.976;2023-04-06T06:18:41;18.53;;;10.40;;
5965;SDS011;3009;43.224;27.976;2023-04-06T06:21:10;15.87;;;9.70;;
5965;SDS011;3009;43.224;27.976;2023-04-06T06:23:39;17.60;;;10.77;;
5965;SDS011;3009;43.224;27.976;2023-04-06T06:26:07;15.87;;;10.43;;
5965;SDS011;3009;43.224;27.976;2023-04-06T06:28:36;18.80;;;10.30;;
5965;SDS011;3009;43.224;27.976;2023-04-06T06:31:06;19.07;;;11.20;;
5965;SDS011;3009;43.224;27.976;2023-04-06T06:33:34;35.73;;;12.90;;
5965;SDS011;3009;43.224;27.976;2023-04-06T06:36:03;19.43;;;11.73;;
5965;SDS011;3009;43.224;27.976;2023-04-06T06:38:31;18.50;;;11.67;;
5965;SDS011;3009;43.224;27.976;2023-04-06T06:41:00;15.00;;;10.63;;
5965;SDS011;3009;43.224;27.976;2023-04-06T06:43:28;15.93;;;10.97;;
5965;SDS011;3009;43.224;27.976;2023-04-06T06:45:59;20.10;;;11.00;;
5965;SDS011;3009;43.224;27.976;2023-04-06T06:48:29;15.73;;;9.70;;
5965;SDS011;3009;43.224;27.976;2023-04-06T06:50:58;15.93;;;10.57;;
5965;SDS011;3009;43.224;27.976;2023-04-06T06:53:27;14.70;;;10.60;;
5965;SDS011;3009;43.224;27.976;2023-04-06T06:55:56;11.77;;;9.83;;
5965;SDS011;3009;43.224;27.976;2023-04-06T06:58:25;17.03;;;10.70;;
5965;SDS011;3009;43.224;27.976;2023-04-06T07:00:55;14.40;;;10.40;;
5965;SDS011;3009;43.224;27.976;2023-04-06T07:03:25;20.57;;;9.93;;
5965;SDS011;3009;43.224;27.976;2023-04-06T07:05:55;17.00;;;9.33;;
5965;SDS011;3009;43.224;27.976;2023-04-06T07:08:23;15.20;;;9.40;;
5965;SDS011;3009;43.224;27.976;2023-04-06T07:10:52;12.57;;;9.70;;
5965;SDS011;3009;43.224;27.976;2023-04-06T07:13:22;22.00;;;9.30;;
5965;SDS011;3009;43.224;27.976;2023-04-06T07:15:53;15.97;;;9.60;;
5965;SDS011;3009;43.224;27.976;2023-04-06T07:18:22;13.97;;;9.73;;
5965;SDS011;3009;43.224;27.976;2023-04-06T07:20:50;11.00;;;9.00;;
5965;SDS011;3009;43.224;27.976;2023-04-06T07:23:21;12.27;;;9.00;;
5965;SDS011;3009;43.224;27.976;2023-04-06T07:25:49;12.30;;;9.53;;
5965;SDS011;3009;43.224;27.976;2023-04-06T07:28:20;11.83;;;9.70;;
5965;SDS011;3009;43.224;27.976;2023-04-06T07:30:50;19.13;;;11.13;;
5965;SDS011;3009;43.224;27.976;2023-04-06T07:33:19;10.70;;;8.40;;
5965;SDS011;3009;43.224;27.976;2023-04-06T07:35:47;11.73;;;9.33;;
5965;SDS011;3009;43.224;27.976;2023-04-06T07:38:16;20.63;;;11.70;;
5965;SDS011;3009;43.224;27.976;2023-04-06T07:40:46;9.97;;;8.60;;
5965;SDS011;3009;43.224;27.976;2023-04-06T07:43:14;13.93;;;10.40;;
5965;SDS011;3009;43.224;27.976;2023-04-06T07:45:43;14.77;;;10.20;;
5965;SDS011;3009;43.224;27.976;2023-04-06T07:48:12;11.63;;;9.77;;
5965;SDS011;3009;43.224;27.976;2023-04-06T07:50:40;14.17;;;9.87;;
5965;SDS011;3009;43.224;27.976;2023-04-06T07:53:09;11.30;;;10.10;;
5965;SDS011;3009;43.224;27.976;2023-04-06T07:55:37;12.93;;;9.30;;
5965;SDS011;3009;43.224;27.976;2023-04-06T07:58:07;13.77;;;9.17;;
5965;SDS011;3009;43.224;27.976;2023-04-06T08:00:36;11.10;;;8.43;;
5965;SDS011;3009;43.224;27.976;2023-04-06T08:03:04;10.80;;;8.73;;
5965;SDS011;3009;43.224;27.976;2023-04-06T08:05:34;12.57;;;9.13;;
5965;SDS011;3009;43.224;27.976;2023-04-06T08:08:02;11.03;;;9.30;;
5965;SDS011;3009;43.224;27.976;2023-04-06T08:10:30;11.53;;;8.63;;
5965;SDS011;3009;43.224;27.976;2023-04-06T08:13:00;12.57;;;9.27;;
5965;SDS011;3009;43.224;27.976;2023-04-06T08:15:31;9.97;;;8.50;;
5965;SDS011;3009;43.224;27.976;2023-04-06T08:17:59;11.23;;;9.40;;
5965;SDS011;3009;43.224;27.976;2023-04-06T08:20:28;12.83;;;9.27;;
5965;SDS011;3009;43.224;27.976;2023-04-06T08:22:57;10.93;;;8.73;;
5965;SDS011;3009;43.224;27.976;2023-04-06T08:25:25;11.03;;;8.70;;
5965;SDS011;3009;43.224;27.976;2023-04-06T08:27:54;9.50;;;8.50;;
5965;SDS011;3009;43.224;27.976;2023-04-06T08:30:22;10.03;;;8.27;;
5965;SDS011;3009;43.224;27.976;2023-04-06T08:32:52;13.53;;;8.50;;
5965;SDS011;3009;43.224;27.976;2023-04-06T08:35:21;11.23;;;7.00;;
5965;SDS011;3009;43.224;27.976;2023-04-06T08:37:49;13.33;;;8.30;;
5965;SDS011;3009;43.224;27.976;2023-04-06T08:40:18;12.10;;;8.23;;
5965;SDS011;3009;43.224;27.976;2023-04-06T08:42:49;10.73;;;8.00;;
5965;SDS011;3009;43.224;27.976;2023-04-06T08:45:20;8.80;;;7.80;;
5965;SDS011;3009;43.224;27.976;2023-04-06T08:47:49;19.87;;;9.33;;
5965;SDS011;3009;43.224;27.976;2023-04-06T08:50:20;9.83;;;7.90;;
5965;SDS011;3009;43.224;27.976;2023-04-06T08:52:49;7.97;;;7.17;;
5965;SDS011;3009;43.224;27.976;2023-04-06T08:55:17;8.50;;;7.60;;
5965;SDS011;3009;43.224;27.976;2023-04-06T08:57:46;10.00;;;8.40;;
5965;SDS011;3009;43.224;27.976;2023-04-06T09:00:15;18.80;;;8.07;;
5965;SDS011;3009;43.224;27.976;2023-04-06T09:02:45;13.83;;;7.90;;
5965;SDS011;3009;43.224;27.976;2023-04-06T09:05:15;11.17;;;7.73;;
5965;SDS011;3009;43.224;27.976;2023-04-06T09:07:46;8.27;;;7.47;;
5965;SDS011;3009;43.224;27.976;2023-04-06T09:10:14;8.47;;;7.60;;
5965;SDS011;3009;43.224;27.976;2023-04-06T09:12:44;8.13;;;6.93;;
5965;SDS011;3009;43.224;27.976;2023-04-06T09:15:19;8.70;;;7.90;;
5965;SDS011;3009;43.224;27.976;2023-04-06T09:17:50;12.57;;;7.70;;
5965;SDS011;3009;43.224;27.976;2023-04-06T09:20:22;8.70;;;7.50;;
5965;SDS011;3009;43.224;27.976;2023-04-06T09:22:54;12.00;;;7.33;;
5965;SDS011;3009;43.224;27.976;2023-04-06T09:25:24;8.70;;;7.43;;
5965;SDS011;3009;43.224;27.976;2023-04-06T09:27:59;9.43;;;8.40;;
5965;SDS011;3009;43.224;27.976;2023-04-06T09:30:29;7.90;;;7.13;;
5965;SDS011;3009;43.224;27.976;2023-04-06T09:32:58;9.03;;;8.10;;
5965;SDS011;3009;43.224;27.976;2023-04-06T09:35:26;13.10;;;7.93;;
5965;SDS011;3009;43.224;27.976;2023-04-06T09:37:59;7.50;;;6.80;;
5965;SDS011;3009;43.224;27.976;2023-04-06T09:40:47;8.83;;;7.40;;
5965;SDS011;3009;43.224;27.976;2023-04-06T09:43:27;8.50;;;7.43;;
5965;SDS011;3009;43.224;27.976;2023-04-06T09:45:55;7.87;;;7.17;;
5965;SDS011;3009;43.224;27.976;2023-04-06T09:48:25;8.07;;;7.27;;
5965;SDS011;3009;43.224;27.976;2023-04-06T09:50:56;11.40;;;8.10;;
5965;SDS011;3009;43.224;27.976;2023-04-06T09:53:32;10.10;;;7.83;;
5965;SDS011;3009;43.224;27.976;2023-04-06T09:56:05;8.77;;;7.87;;
5965;SDS011;3009;43.224;27.976;2023-04-06T09:58:38;9.10;;;7.80;;
5965;SDS011;3009;43.224;27.976;2023-04-06T10:01:12;10.17;;;8.23;;
5965;SDS011;3009;43.224;27.976;2023-04-06T10:03:45;9.00;;;7.53;;
5965;SDS011;3009;43.224;27.976;2023-04-06T10:06:21;8.63;;;7.70;;
5965;SDS011;3009;43.224;27.976;2023-04-06T10:08:53;9.40;;;7.87;;
5965;SDS011;3009;43.224;27.976;2023-04-06T10:11:24;8.53;;;7.60;;
5965;SDS011;3009;43.224;27.976;2023-04-06T10:13:53;10.20;;;8.67;;
5965;SDS011;3009;43.224;27.976;2023-04-06T10:16:23;12.67;;;8.50;;
5965;SDS011;3009;43.224;27.976;2023-04-06T10:18:55;8.67;;;7.80;;
5965;SDS011;3009;43.224;27.976;2023-04-06T10:21:29;8.10;;;7.37;;
5965;SDS011;3009;43.224;27.976;2023-04-06T10:24:01;12.73;;;9.47;;
5965;SDS011;3009;43.224;27.976;2023-04-06T10:26:36;11.27;;;8.20;;
5965;SDS011;3009;43.224;27.976;2023-04-06T10:29:05;12.90;;;8.20;;
5965;SDS011;3009;43.224;27.976;2023-04-06T10:31:39;10.10;;;8.73;;
5965;SDS011;3009;43.224;27.976;2023-04-06T10:34:11;9.40;;;8.00;;
5965;SDS011;3009;43.224;27.976;2023-04-06T10:36:41;7.97;;;7.17;;
5965;SDS011;3009;43.224;27.976;2023-04-06T10:39:11;8.97;;;8.00;;
5965;SDS011;3009;43.224;27.976;2023-04-06T10:41:41;10.77;;;8.00;;
5965;SDS011;3009;43.224;27.976;2023-04-06T10:44:17;11.70;;;8.93;;
5965;SDS011;3009;43.224;27.976;2023-04-06T10:46:54;10.80;;;8.80;;
5965;SDS011;3009;43.224;27.976;2023-04-06T10:49:24;12.00;;;8.70;;
5965;SDS011;3009;43.224;27.976;2023-04-06T10:51:53;8.63;;;7.80;;
5965;SDS011;3009;43.224;27.976;2023-04-06T10:54:25;13.80;;;8.67;;
5965;SDS011;3009;43.224;27.976;2023-04-06T10:56:54;10.20;;;8.60;;
5965;SDS011;3009;43.224;27.976;2023-04-06T10:59:23;9.33;;;8.40;;
5965;SDS011;3009;43.224;27.976;2023-04-06T11:01:53;11.20;;;8.80;;
5965;SDS011;3009;43.224;27.976;2023-04-06T11:04:22;13.73;;;9.40;;
5965;SDS011;3009;43.224;27.976;2023-04-06T11:06:51;9.60;;;8.70;;
5965;SDS011;3009;43.224;27.976;2023-04-06T11:09:25;10.40;;;7.77;;
5965;SDS011;3009;43.224;27.976;2023-04-06T11:11:54;9.33;;;8.33;;
5965;SDS011;3009;43.224;27.976;2023-04-06T11:14:23;15.60;;;6.80;;
5965;SDS011;3009;43.224;27.976;2023-04-06T11:16:53;8.43;;;7.20;;
5965;SDS011;3009;43.224;27.976;2023-04-06T11:19:22;17.03;;;8.33;;
5965;SDS011;3009;43.224;27.976;2023-04-06T11:21:50;10.43;;;8.50;;
5965;SDS011;3009;43.224;27.976;2023-04-06T11:24:19;8.60;;;7.70;;
5965;SDS011;3009;43.224;27.976;2023-04-06T11:26:52;8.17;;;7.37;;
5965;SDS011;3009;43.224;27.976;2023-04-06T11:29:24;8.60;;;7.80;;
5965;SDS011;3009;43.224;27.976;2023-04-06T11:31:57;11.33;;;7.77;;
5965;SDS011;3009;43.224;27.976;2023-04-06T11:34:28;8.70;;;7.90;;
5965;SDS011;3009;43.224;27.976;2023-04-06T11:36:57;9.00;;;6.80;;
5965;SDS011;3009;43.224;27.976;2023-04-06T11:39:28;11.07;;;8.73;;
5965;SDS011;3009;43.224;27.976;2023-04-06T11:41:59;10.40;;;8.03;;
5965;SDS011;3009;43.224;27.976;2023-04-06T11:44:32;9.70;;;8.43;;
5965;SDS011;3009;43.224;27.976;2023-04-06T11:47:02;12.57;;;8.00;;
5965;SDS011;3009;43.224;27.976;2023-04-06T11:49:31;10.60;;;8.03;;
5965;SDS011;3009;43.224;27.976;2023-04-06T11:52:00;8.80;;;8.00;;
5965;SDS011;3009;43.224;27.976;2023-04-06T11:54:29;11.23;;;7.97;;
5965;SDS011;3009;43.224;27.976;2023-04-06T11:57:00;11.10;;;8.83;;
5965;SDS011;3009;43.224;27.976;2023-04-06T11:59:29;9.57;;;7.70;;
5965;SDS011;3009;43.224;27.976;2023-04-06T12:01:58;8.07;;;7.10;;
5965;SDS011;3009;43.224;27.976;2023-04-06T12:04:27;9.37;;;7.60;;
5965;SDS011;3009;43.224;27.976;2023-04-06T12:06:55;8.60;;;7.70;;
5965;SDS011;3009;43.224;27.976;2023-04-06T12:09:24;8.50;;;7.70;;
5965;SDS011;3009;43.224;27.976;2023-04-06T12:11:52;7.80;;;7.00;;
5965;SDS011;3009;43.224;27.976;2023-04-06T12:14:23;8.50;;;7.10;;
5965;SDS011;3009;43.224;27.976;2023-04-06T12:16:52;9.90;;;7.80;;
5965;SDS011;3009;43.224;27.976;2023-04-06T12:19:20;9.97;;;7.83;;
5965;SDS011;3009;43.224;27.976;2023-04-06T12:21:52;10.13;;;7.20;;
5965;SDS011;3009;43.224;27.976;2023-04-06T12:24:21;8.30;;;7.50;;
5965;SDS011;3009;43.224;27.976;2023-04-06T12:26:49;12.30;;;8.33;;
5965;SDS011;3009;43.224;27.976;2023-04-06T12:29:33;8.80;;;7.97;;
5965;SDS011;3009;43.224;27.976;2023-04-06T12:32:02;9.43;;;7.93;;
5965;SDS011;3009;43.224;27.976;2023-04-06T12:34:30;9.70;;;8.57;;
5965;SDS011;3009;43.224;27.976;2023-04-06T12:36:58;8.43;;;7.53;;
5965;SDS011;3009;43.224;27.976;2023-04-06T12:39:27;8.97;;;8.17;;
5965;SDS011;3009;43.224;27.976;2023-04-06T12:41:56;11.30;;;7.63;;
5965;SDS011;3009;43.224;27.976;2023-04-06T12:44:25;8.77;;;7.83;;
5965;SDS011;3009;43.224;27.976;2023-04-06T12:46:55;8.07;;;7.27;;
5965;SDS011;3009;43.224;27.976;2023-04-06T12:49:23;8.47;;;7.57;;
5965;SDS011;3009;43.224;27.976;2023-04-06T12:51:52;11.83;;;8.80;;
5965;SDS011;3009;43.224;27.976;2023-04-06T12:54:20;23.53;;;8.73;;
5965;SDS011;3009;43.224;27.976;2023-04-06T12:56:49;11.67;;;8.40;;
5965;SDS011;3009;43.224;27.976;2023-04-06T12:59:18;9.70;;;7.70;;
5965;SDS011;3009;43.224;27.976;2023-04-06T13:01:47;9.23;;;8.33;;
5965;SDS011;3009;43.224;27.976;2023-04-06T13:04:18;8.60;;;7.70;;
5965;SDS011;3009;43.224;27.976;2023-04-06T13:06:46;11.27;;;9.23;;
5965;SDS011;3009;43.224;27.976;2023-04-06T13:09:14;10.07;;;8.50;;
5965;SDS011;3009;43.224;27.976;2023-04-06T13:11:43;12.90;;;7.97;;
5965;SDS011;3009;43.224;27.976;2023-04-06T13:14:12;12.90;;;8.67;;
5965;SDS011;3009;43.224;27.976;2023-04-06T13:16:40;8.70;;;7.83;;
5965;SDS011;3009;43.224;27.976;2023-04-06T13:19:09;11.87;;;9.33;;
5965;SDS011;3009;43.224;27.976;2023-04-06T13:21:40;15.40;;;11.03;;
5965;SDS011;3009;43.224;27.976;2023-04-06T13:24:08;19.97;;;12.10;;
5965;SDS011;3009;43.224;27.976;2023-04-06T13:26:37;10.40;;;9.40;;
5965;SDS011;3009;43.224;27.976;2023-04-06T13:29:05;12.50;;;9.57;;
5965;SDS011;3009;43.224;27.976;2023-04-06T13:31:34;11.33;;;8.73;;
5965;SDS011;3009;43.224;27.976;2023-04-06T13:34:03;12.40;;;8.70;;
5965;SDS011;3009;43.224;27.976;2023-04-06T13:36:31;10.57;;;9.37;;
5965;SDS011;3009;43.224;27.976;2023-04-06T13:39:01;9.90;;;8.90;;
5965;SDS011;3009;43.224;27.976;2023-04-06T13:41:29;8.90;;;8.00;;
5965;SDS011;3009;43.224;27.976;2023-04-06T13:43:58;12.20;;;8.10;;
5965;SDS011;3009;43.224;27.976;2023-04-06T13:46:27;8.40;;;7.00;;
5965;SDS011;3009;43.224;27.976;2023-04-06T13:48:55;10.03;;;8.97;;
5965;SDS011;3009;43.224;27.976;2023-04-06T13:51:24;8.60;;;7.80;;
5965;SDS011;3009;43.224;27.976;2023-04-06T13:53:53;10.87;;;8.20;;
5965;SDS011;3009;43.224;27.976;2023-04-06T13:56:23;9.80;;;8.00;;
5965;SDS011;3009;43.224;27.976;2023-04-06T13:58:53;12.57;;;9.90;;
5965;SDS011;3009;43.224;27.976;2023-04-06T14:01:22;9.83;;;8.83;;
5965;SDS011;3009;43.224;27.976;2023-04-06T14:03:53;10.50;;;9.07;;
5965;SDS011;3009;43.224;27.976;2023-04-06T14:06:21;9.40;;;8.50;;
5965;SDS011;3009;43.224;27.976;2023-04-06T14:08:57;9.97;;;8.90;;
5965;SDS011;3009;43.224;27.976;2023-04-06T14:11:27;17.20;;;9.87;;
5965;SDS011;3009;43.224;27.976;2023-04-06T14:13:56;11.27;;;9.10;;
5965;SDS011;3009;43.224;27.976;2023-04-06T14:16:24;9.40;;;8.50;;
5965;SDS011;3009;43.224;27.976;2023-04-06T14:18:53;10.67;;;8.80;;
5965;SDS011;3009;43.224;27.976;2023-04-06T14:21:21;8.97;;;8.07;;
5965;SDS011;3009;43.224;27.976;2023-04-06T14:23:49;9.63;;;8.63;;
5965;SDS011;3009;43.224;27.976;2023-04-06T14:26:19;14.67;;;8.80;;
5965;SDS011;3009;43.224;27.976;2023-04-06T14:28:48;9.60;;;8.70;;
5965;SDS011;3009;43.224;27.976;2023-04-06T14:31:17;8.90;;;8.10;;
5965;SDS011;3009;43.224;27.976;2023-04-06T14:33:45;8.73;;;7.93;;
5965;SDS011;3009;43.224;27.976;2023-04-06T14:36:13;12.37;;;9.20;;
5965;SDS011;3009;43.224;27.976;2023-04-06T14:38:42;11.37;;;8.90;;
5965;SDS011;3009;43.224;27.976;2023-04-06T14:41:16;8.40;;;7.47;;
5965;SDS011;3009;43.224;27.976;2023-04-06T14:46:15;11.63;;;10.10;;
5965;SDS011;3009;43.224;27.976;2023-04-06T14:48:43;12.07;;;10.17;;
5965;SDS011;3009;43.224;27.976;2023-04-06T14:51:13;18.60;;;11.50;;
5965;SDS011;3009;43.224;27.976;2023-04-06T14:53:41;9.73;;;8.73;;
5965;SDS011;3009;43.224;27.976;2023-04-06T14:56:10;9.37;;;8.40;;
5965;SDS011;3009;43.224;27.976;2023-04-06T14:58:39;12.20;;;8.50;;
5965;SDS011;3009;43.224;27.976;2023-04-06T15:01:08;10.77;;;9.23;;
5965;SDS011;3009;43.224;27.976;2023-04-06T15:03:37;11.03;;;9.93;;
5965;SDS011;3009;43.224;27.976;2023-04-06T15:06:11;10.13;;;8.40;;
5965;SDS011;3009;43.224;27.976;2023-04-06T15:08:42;13.20;;;10.20;;